Terminal Aerodrome Forecast
Issued by NWS St Louis, MO

Home | Current Version | Previous Version | Text Only | Print | Product List | Glossary On
Versions: 1 2 3 4 5 6 7 8 9 10 11 12 13 14 15 16 17 18 19 20 21
241
FTUS43 KLSX 101459 AAA
TAFCOU
TAF AMD
KCOU 101459Z 1015/1112 24005KT P6SM OVC050
      TEMPO 1015/1018 3SM -SN OVC025
     FM101800 22005KT 2SM -SN BR OVC015
     FM102200 13008KT P6SM BKN150
     FM110600 06010KT P6SM BKN250=

USA.gov is the U.S. government's official web portal to all federal, state and local government web resources and services.